createdAt,value
2023-05-09T00:01:24.547Z,2.50
2023-05-09T00:03:52.405Z,2.40
2023-05-09T00:06:19.894Z,2.40
2023-05-09T00:08:46.688Z,2.10
2023-05-09T00:11:13.350Z,2.40
2023-05-09T00:13:40.168Z,4.30
2023-05-09T00:16:07.156Z,2.20
2023-05-09T00:18:34.124Z,2.00
2023-05-09T00:21:02.489Z,2.40
2023-05-09T00:23:29.060Z,3.20
2023-05-09T00:25:55.823Z,2.20
2023-05-09T00:28:22.549Z,3.00
2023-05-09T00:30:49.218Z,2.00
2023-05-09T00:33:16.266Z,4.20
2023-05-09T00:35:42.869Z,4.00
2023-05-09T00:38:09.597Z,2.90
2023-05-09T00:40:36.540Z,2.90
2023-05-09T00:43:03.303Z,2.80
2023-05-09T00:45:29.956Z,3.60
2023-05-09T00:47:57.708Z,3.00
2023-05-09T00:50:24.994Z,3.70
2023-05-09T00:52:51.830Z,4.80
2023-05-09T00:55:19.820Z,4.00
2023-05-09T00:57:46.506Z,4.50
2023-05-09T01:00:14.108Z,4.10
2023-05-09T01:02:46.730Z,5.50
2023-05-09T01:05:15.340Z,6.30
2023-05-09T01:08:18.171Z,5.20
2023-05-09T01:11:09.464Z,4.40
2023-05-09T01:13:51.680Z,4.00
2023-05-09T01:16:37.582Z,5.10
2023-05-09T01:19:29.389Z,4.40
2023-05-09T01:21:57.181Z,4.50
2023-05-09T01:25:05.672Z,4.10
2023-05-09T01:28:06.703Z,4.60
2023-05-09T01:30:35.995Z,4.80
2023-05-09T01:33:07.269Z,3.50
2023-05-09T01:35:37.455Z,5.80
2023-05-09T01:38:12.605Z,5.40
2023-05-09T01:40:42.482Z,3.40
2023-05-09T01:43:11.268Z,3.90
2023-05-09T01:45:39.514Z,4.00
2023-05-09T01:48:08.805Z,4.30
2023-05-09T01:50:36.204Z,4.00
2023-05-09T01:53:05.846Z,3.70
2023-05-09T01:55:35.365Z,3.90
2023-05-09T01:58:05.070Z,4.20
2023-05-09T02:00:35.479Z,4.50
2023-05-09T02:03:04.156Z,4.30
2023-05-09T02:05:32.418Z,4.30
2023-05-09T02:07:59.480Z,4.50
2023-05-09T02:10:29.963Z,3.90
2023-05-09T02:12:57.888Z,3.70
2023-05-09T02:15:25.985Z,3.40
2023-05-09T02:17:52.698Z,3.70
2023-05-09T02:20:19.524Z,3.40
2023-05-09T02:22:47.136Z,3.90
2023-05-09T02:25:15.869Z,2.90
2023-05-09T02:27:45.418Z,3.30
2023-05-09T02:30:17.501Z,3.20
2023-05-09T02:32:47.304Z,3.20
2023-05-09T02:35:16.481Z,3.00
2023-05-09T02:37:45.421Z,3.40
2023-05-09T02:40:13.392Z,3.10
2023-05-09T02:42:40.134Z,4.20
2023-05-09T02:45:07.984Z,3.10
2023-05-09T02:47:35.770Z,3.60
2023-05-09T02:50:02.567Z,4.00
2023-05-09T02:52:29.207Z,3.70
2023-05-09T02:54:55.944Z,3.70
2023-05-09T02:57:23.112Z,3.30
2023-05-09T02:59:49.816Z,4.20
2023-05-09T03:02:16.747Z,4.60
2023-05-09T03:04:44.172Z,3.10
2023-05-09T03:07:10.815Z,3.10
2023-05-09T03:09:39.248Z,2.90
2023-05-09T03:12:08.292Z,3.70
2023-05-09T03:14:35.787Z,3.50
2023-05-09T03:17:02.635Z,3.00
2023-05-09T03:19:33.628Z,3.90
2023-05-09T03:22:00.336Z,3.80
2023-05-09T03:24:28.355Z,3.30
2023-05-09T03:26:55.313Z,4.60
2023-05-09T03:29:22.084Z,2.70
2023-05-09T03:31:48.938Z,3.20
2023-05-09T03:34:15.630Z,3.00
2023-05-09T03:36:46.316Z,3.90
2023-05-09T03:39:14.280Z,2.90
2023-05-09T03:41:44.239Z,2.90
2023-05-09T03:44:13.070Z,3.80
2023-05-09T03:46:39.784Z,4.20
2023-05-09T03:49:06.996Z,2.80
2023-05-09T03:51:33.841Z,4.10
2023-05-09T03:54:01.286Z,5.10
2023-05-09T03:56:28.796Z,2.50
2023-05-09T03:58:55.522Z,5.10
2023-05-09T04:01:22.464Z,5.20
2023-05-09T04:03:49.306Z,3.50
2023-05-09T04:06:16.559Z,3.10
2023-05-09T04:08:44.662Z,3.70
2023-05-09T04:11:11.290Z,3.50
2023-05-09T04:13:39.608Z,3.90
2023-05-09T04:16:13.382Z,5.50
2023-05-09T04:18:42.356Z,5.40
2023-05-09T04:21:09.503Z,2.60
2023-05-09T04:23:36.965Z,2.70
2023-05-09T04:26:03.763Z,3.20
2023-05-09T04:28:30.769Z,3.20
2023-05-09T04:30:58.260Z,4.60
2023-05-09T04:33:25.079Z,2.80
2023-05-09T04:35:52.358Z,3.10
2023-05-09T04:38:19.345Z,4.20
2023-05-09T04:40:46.265Z,3.10
2023-05-09T04:43:12.965Z,4.30
2023-05-09T04:45:40.788Z,4.80
2023-05-09T04:48:07.798Z,4.10
2023-05-09T04:50:34.636Z,5.40
2023-05-09T04:53:03.424Z,7.40
2023-05-09T04:55:30.252Z,4.40
2023-05-09T04:57:57.169Z,4.80
2023-05-09T05:00:24.228Z,3.70
2023-05-09T05:02:51.392Z,3.30
2023-05-09T05:05:24.602Z,3.80
2023-05-09T05:07:54.258Z,5.20
2023-05-09T05:10:22.218Z,5.40
2023-05-09T05:12:53.022Z,4.30
2023-05-09T05:15:19.768Z,3.70
2023-05-09T05:17:47.873Z,5.80
2023-05-09T05:20:22.104Z,3.20
2023-05-09T05:22:49.419Z,3.80
2023-05-09T05:25:17.801Z,6.60
2023-05-09T05:27:45.908Z,4.60
2023-05-09T05:30:15.590Z,3.80
2023-05-09T05:32:43.788Z,3.60
2023-05-09T05:35:12.156Z,3.70
2023-05-09T05:37:39.947Z,3.60
2023-05-09T05:40:08.800Z,3.90
2023-05-09T05:42:36.522Z,3.70
2023-05-09T05:45:06.260Z,3.80
2023-05-09T05:47:37.091Z,5.90
2023-05-09T05:50:11.639Z,3.40
2023-05-09T05:52:41.986Z,5.10
2023-05-09T05:55:11.540Z,4.10
2023-05-09T05:57:39.142Z,3.50
2023-05-09T06:00:11.388Z,3.50
2023-05-09T06:02:45.474Z,4.30
2023-05-09T06:05:17.670Z,3.60
2023-05-09T06:07:44.450Z,3.90
2023-05-09T06:10:11.364Z,3.90
2023-05-09T06:12:38.360Z,3.90
2023-05-09T06:15:07.168Z,3.60
2023-05-09T06:17:36.096Z,4.10
2023-05-09T06:20:02.802Z,4.20
2023-05-09T06:22:29.562Z,4.00
2023-05-09T06:24:56.184Z,3.30
2023-05-09T06:27:22.818Z,3.60
2023-05-09T06:29:49.413Z,4.00
2023-05-09T06:32:18.807Z,4.40
2023-05-09T06:34:45.572Z,4.60
2023-05-09T06:37:12.158Z,4.20
2023-05-09T06:39:38.837Z,4.40
2023-05-09T06:42:05.627Z,5.70
2023-05-09T06:44:33.367Z,5.50
2023-05-09T06:46:59.992Z,4.20
2023-05-09T06:49:26.861Z,5.70
2023-05-09T06:51:53.426Z,3.80
2023-05-09T06:54:20.060Z,4.10
2023-05-09T06:56:46.666Z,4.10
2023-05-09T06:59:13.572Z,4.10
2023-05-09T07:01:41.186Z,4.20
2023-05-09T07:04:08.014Z,3.40
2023-05-09T07:06:34.633Z,4.70
2023-05-09T07:09:01.280Z,3.60
2023-05-09T07:11:27.985Z,4.10
2023-05-09T07:13:54.548Z,3.90
2023-05-09T07:16:23.156Z,3.70
2023-05-09T07:18:49.862Z,5.30
2023-05-09T07:21:16.668Z,3.60
2023-05-09T07:23:43.348Z,4.50
2023-05-09T07:26:10.033Z,5.00
2023-05-09T07:28:36.781Z,4.70
2023-05-09T07:31:03.533Z,4.60
2023-05-09T07:33:30.238Z,4.70
2023-05-09T07:35:59.304Z,5.30
2023-05-09T07:38:26.474Z,3.60
2023-05-09T07:40:53.428Z,4.00
2023-05-09T07:43:20.037Z,3.90
2023-05-09T07:45:47.255Z,3.70
2023-05-09T07:48:13.866Z,5.40
2023-05-09T07:50:40.437Z,3.80
2023-05-09T07:53:07.024Z,3.60
2023-05-09T07:55:33.640Z,3.50
2023-05-09T07:58:00.323Z,4.50
2023-05-09T08:00:26.897Z,3.90
2023-05-09T08:02:54.349Z,5.20
2023-05-09T08:05:21.134Z,4.60
2023-05-09T08:07:47.829Z,4.30
2023-05-09T08:10:14.637Z,3.90
2023-05-09T08:12:41.353Z,4.30
2023-05-09T08:15:08.404Z,3.80
2023-05-09T08:17:35.143Z,3.60
2023-05-09T08:20:01.923Z,3.50
2023-05-09T08:22:28.528Z,3.10
2023-05-09T08:24:55.136Z,3.40
2023-05-09T08:27:21.863Z,2.80
2023-05-09T08:29:48.473Z,3.90
2023-05-09T08:32:15.093Z,3.30
2023-05-09T08:34:41.936Z,2.90
2023-05-09T08:37:08.666Z,4.30
2023-05-09T08:39:35.318Z,3.20
2023-05-09T08:42:02.589Z,2.70
2023-05-09T08:44:30.679Z,2.80
2023-05-09T08:47:01.591Z,2.40
2023-05-09T08:49:28.897Z,3.00
2023-05-09T08:51:56.676Z,3.00
2023-05-09T08:54:25.813Z,3.90
2023-05-09T08:56:52.607Z,2.50
2023-05-09T08:59:19.730Z,3.20
2023-05-09T09:01:47.218Z,2.90
2023-05-09T09:04:14.278Z,2.80
2023-05-09T09:06:41.780Z,2.60
2023-05-09T09:09:09.279Z,2.60
2023-05-09T09:11:37.186Z,3.30
2023-05-09T09:14:13.245Z,3.10
2023-05-09T09:16:43.617Z,3.00
2023-05-09T09:19:15.614Z,3.10
2023-05-09T09:21:45.174Z,2.90
2023-05-09T09:24:20.140Z,3.10
2023-05-09T09:26:48.761Z,2.90
2023-05-09T09:29:17.196Z,3.40
2023-05-09T09:31:46.344Z,3.10
2023-05-09T09:34:19.185Z,3.00
2023-05-09T09:36:46.996Z,4.90
2023-05-09T09:39:14.358Z,3.30
2023-05-09T09:41:42.381Z,4.80
2023-05-09T09:44:11.407Z,3.60
2023-05-09T09:46:46.450Z,3.90
2023-05-09T09:49:15.032Z,3.60
2023-05-09T09:51:42.600Z,4.20
2023-05-09T09:54:10.908Z,3.30
2023-05-09T09:56:47.653Z,3.00
2023-05-09T09:59:19.034Z,3.10
2023-05-09T10:02:07.570Z,3.50
2023-05-09T10:04:39.161Z,3.50
2023-05-09T10:07:08.486Z,4.00
2023-05-09T10:09:38.017Z,3.30
2023-05-09T10:12:07.093Z,4.70
2023-05-09T10:14:35.965Z,3.80
2023-05-09T10:17:05.292Z,3.90
2023-05-09T10:19:33.106Z,5.10
2023-05-09T10:22:10.916Z,4.60
2023-05-09T10:24:47.192Z,3.90
2023-05-09T10:27:15.680Z,3.70
2023-05-09T10:29:48.358Z,4.00
2023-05-09T10:32:27.694Z,4.40
2023-05-09T10:35:02.196Z,4.70
2023-05-09T10:37:30.949Z,4.20
2023-05-09T10:40:00.200Z,4.20
2023-05-09T10:42:28.517Z,3.90
2023-05-09T10:44:56.379Z,4.40
2023-05-09T10:47:27.010Z,4.10
2023-05-09T10:49:54.929Z,3.60
2023-05-09T10:52:22.775Z,3.80
2023-05-09T10:55:04.158Z,3.40
2023-05-09T10:57:32.227Z,4.80
2023-05-09T11:00:00.601Z,3.40
2023-05-09T11:02:31.064Z,4.30
2023-05-09T11:05:15.985Z,4.10
2023-05-09T11:07:43.572Z,4.00
2023-05-09T11:10:15.908Z,3.40
2023-05-09T11:13:00.240Z,4.00
2023-05-09T11:15:30.270Z,4.30
2023-05-09T11:18:12.371Z,4.10
2023-05-09T11:20:49.215Z,3.50
2023-05-09T11:23:17.631Z,3.50
2023-05-09T11:25:47.776Z,4.90
2023-05-09T11:28:35.763Z,3.80
2023-05-09T11:31:14.572Z,3.60
2023-05-09T11:33:43.424Z,3.30
2023-05-09T11:36:30.292Z,3.90
2023-05-09T11:39:10.610Z,3.10
2023-05-09T11:41:43.483Z,3.70
2023-05-09T11:44:15.447Z,2.80
2023-05-09T11:46:42.870Z,4.20
2023-05-09T11:49:11.964Z,3.80
2023-05-09T11:51:39.862Z,3.90
2023-05-09T11:54:07.957Z,4.30
2023-05-09T11:56:40.866Z,4.30
2023-05-09T11:59:08.045Z,4.60
2023-05-09T12:01:36.798Z,4.20
2023-05-09T12:04:07.902Z,4.50
2023-05-09T12:06:34.612Z,4.50
2023-05-09T12:09:01.558Z,3.80
2023-05-09T12:11:32.563Z,4.70
2023-05-09T12:13:59.200Z,4.30
2023-05-09T12:16:26.059Z,4.90
2023-05-09T12:18:53.305Z,5.00
2023-05-09T12:21:21.736Z,4.10
2023-05-09T12:23:50.917Z,4.50
2023-05-09T12:26:19.122Z,4.00
2023-05-09T12:28:45.988Z,4.60
2023-05-09T12:31:13.068Z,3.60
2023-05-09T12:33:40.227Z,3.50
2023-05-09T12:36:08.723Z,4.20
2023-05-09T12:38:35.476Z,3.40
2023-05-09T12:41:04.200Z,7.30
2023-05-09T12:43:32.733Z,5.30
2023-05-09T12:46:00.564Z,6.10
2023-05-09T12:48:27.652Z,5.40
2023-05-09T12:50:54.413Z,6.20
2023-05-09T12:53:31.206Z,4.80
2023-05-09T12:56:05.536Z,4.60
2023-05-09T12:58:33.616Z,3.90
2023-05-09T13:01:04.489Z,5.10
2023-05-09T13:03:37.849Z,5.80
2023-05-09T13:06:06.705Z,6.60
2023-05-09T13:08:33.401Z,6.80
2023-05-09T13:11:11.859Z,6.00
2023-05-09T13:13:42.643Z,5.70
2023-05-09T13:16:10.733Z,7.80
2023-05-09T13:18:38.349Z,7.70
2023-05-09T13:21:05.035Z,6.80
2023-05-09T13:23:31.661Z,6.50
2023-05-09T13:25:58.391Z,5.90
2023-05-09T13:28:25.028Z,7.50
2023-05-09T13:30:51.769Z,5.70
2023-05-09T13:33:25.656Z,4.90
2023-05-09T13:35:53.708Z,4.60
2023-05-09T13:38:20.427Z,6.50
2023-05-09T13:40:47.011Z,4.60
2023-05-09T13:43:13.672Z,5.40
2023-05-09T13:45:40.274Z,4.30
2023-05-09T13:48:07.029Z,5.10
2023-05-09T13:50:34.379Z,4.80
2023-05-09T13:53:01.167Z,3.90
2023-05-09T13:55:27.921Z,5.50
2023-05-09T13:57:55.108Z,4.40
2023-05-09T14:00:22.556Z,6.30
2023-05-09T14:02:49.233Z,4.20
2023-05-09T14:05:17.078Z,5.60
2023-05-09T14:07:45.193Z,4.50
2023-05-09T14:10:12.864Z,5.10
2023-05-09T14:12:40.690Z,5.00
2023-05-09T14:15:08.708Z,5.60
2023-05-09T14:17:35.673Z,5.90
2023-05-09T14:20:02.409Z,9.50
2023-05-09T14:22:29.151Z,8.60
2023-05-09T14:24:57.504Z,4.50
2023-05-09T14:27:25.258Z,4.90
2023-05-09T14:29:52.221Z,6.10
2023-05-09T14:32:18.884Z,5.10
2023-05-09T14:34:46.006Z,5.20
2023-05-09T14:37:15.784Z,4.30
2023-05-09T14:39:45.284Z,4.40
2023-05-09T14:42:14.129Z,4.40
2023-05-09T14:44:41.698Z,6.50
2023-05-09T14:47:09.806Z,4.90
2023-05-09T14:49:37.894Z,4.80
2023-05-09T14:52:04.688Z,7.90
2023-05-09T14:54:31.698Z,7.30
2023-05-09T14:56:59.612Z,5.10
2023-05-09T14:59:26.340Z,5.10
2023-05-09T15:01:53.370Z,9.70
2023-05-09T15:04:19.973Z,5.60
2023-05-09T15:06:46.605Z,5.00
2023-05-09T15:09:14.006Z,6.00
2023-05-09T15:11:48.392Z,7.20
2023-05-09T15:14:16.801Z,6.90
2023-05-09T15:16:44.368Z,6.10
2023-05-09T15:19:11.322Z,7.10
2023-05-09T15:21:38.200Z,6.20
2023-05-09T15:24:05.139Z,7.10
2023-05-09T15:26:32.359Z,6.70
2023-05-09T15:28:59.185Z,6.40
2023-05-09T15:31:26.059Z,6.30
2023-05-09T15:33:52.923Z,9.60
2023-05-09T15:36:19.661Z,7.20
2023-05-09T15:38:49.728Z,7.90
2023-05-09T15:41:17.082Z,8.10
2023-05-09T15:43:44.004Z,10.10
2023-05-09T15:46:11.013Z,7.00
2023-05-09T15:48:37.874Z,6.90
2023-05-09T15:51:04.773Z,10.90
2023-05-09T15:53:31.628Z,7.10
2023-05-09T15:55:58.254Z,7.10
2023-05-09T15:58:25.106Z,6.50
2023-05-09T16:00:52.090Z,11.70
2023-05-09T16:03:19.185Z,6.60
2023-05-09T16:05:46.293Z,6.40
2023-05-09T16:08:13.126Z,7.50
2023-05-09T16:10:40.620Z,6.40
2023-05-09T16:13:07.971Z,6.40
2023-05-09T16:15:35.352Z,8.10
2023-05-09T16:18:02.311Z,9.20
2023-05-09T16:20:29.629Z,7.70
2023-05-09T16:22:56.316Z,7.90
2023-05-09T16:25:23.025Z,6.30
2023-05-09T16:27:49.687Z,7.40
2023-05-09T16:30:16.950Z,6.60
2023-05-09T16:32:43.908Z,7.60
2023-05-09T16:35:10.975Z,8.10
2023-05-09T16:37:37.734Z,7.00
2023-05-09T16:40:04.920Z,6.60
2023-05-09T16:42:31.821Z,6.20
2023-05-09T16:44:58.519Z,8.60
2023-05-09T16:47:25.348Z,7.10
2023-05-09T16:49:52.155Z,7.20
2023-05-09T16:52:18.953Z,7.30
2023-05-09T16:54:45.559Z,6.80
2023-05-09T16:57:12.810Z,8.20
2023-05-09T16:59:39.783Z,6.30
2023-05-09T17:02:06.495Z,6.60
2023-05-09T17:04:34.692Z,6.30
2023-05-09T17:07:02.765Z,6.80
2023-05-09T17:09:29.608Z,6.60
2023-05-09T17:11:56.512Z,5.00
2023-05-09T17:14:23.165Z,7.90
2023-05-09T17:16:50.001Z,8.60
2023-05-09T17:19:17.076Z,8.30
2023-05-09T17:21:44.357Z,5.70
2023-05-09T17:24:11.092Z,7.40
2023-05-09T17:26:38.844Z,6.20
2023-05-09T17:29:06.095Z,6.60
2023-05-09T17:31:32.843Z,5.80
2023-05-09T17:33:59.450Z,6.70
2023-05-09T17:36:26.280Z,6.80
2023-05-09T17:38:52.881Z,6.70
2023-05-09T17:41:19.531Z,7.50
2023-05-09T17:43:46.163Z,5.30
2023-05-09T17:46:14.949Z,7.90
2023-05-09T17:48:42.115Z,5.80
2023-05-09T17:51:09.139Z,6.60
2023-05-09T17:53:35.761Z,7.10
2023-05-09T17:56:02.553Z,6.80
2023-05-09T17:58:29.985Z,8.10
2023-05-09T18:00:58.713Z,7.90
2023-05-09T18:03:27.204Z,8.90
2023-05-09T18:05:54.024Z,6.90
2023-05-09T18:08:20.649Z,5.70
2023-05-09T18:10:47.585Z,6.50
2023-05-09T18:13:14.324Z,5.80
2023-05-09T18:15:41.322Z,6.40
2023-05-09T18:18:08.164Z,7.40
2023-05-09T18:20:35.027Z,6.80
2023-05-09T18:23:01.788Z,6.60
2023-05-09T18:25:28.508Z,7.50
2023-05-09T18:27:56.571Z,6.50
2023-05-09T18:30:23.318Z,7.20
2023-05-09T18:32:49.944Z,6.70
2023-05-09T18:35:16.847Z,6.50
2023-05-09T18:37:43.901Z,6.50
2023-05-09T18:40:15.336Z,4.60
2023-05-09T18:42:42.656Z,7.70
2023-05-09T18:45:10.389Z,6.50
2023-05-09T18:47:37.999Z,9.50
2023-05-09T18:50:07.116Z,6.00
2023-05-09T18:52:34.398Z,6.60
2023-05-09T18:55:00.999Z,7.10
2023-05-09T18:57:28.319Z,7.70
2023-05-09T18:59:56.066Z,5.40
2023-05-09T19:02:23.641Z,10.90
2023-05-09T19:04:51.571Z,7.50
2023-05-09T19:07:18.506Z,9.40
2023-05-09T19:09:45.785Z,8.10
2023-05-09T19:12:12.491Z,7.60
2023-05-09T19:14:39.151Z,7.30
2023-05-09T19:17:06.043Z,6.00
2023-05-09T19:19:33.074Z,7.10
2023-05-09T19:22:01.573Z,6.50
2023-05-09T19:24:28.150Z,7.90
2023-05-09T19:26:55.120Z,7.00
2023-05-09T19:29:21.757Z,6.90
2023-05-09T19:31:48.449Z,6.60
2023-05-09T19:34:15.434Z,7.10
2023-05-09T19:36:42.061Z,7.90
2023-05-09T19:39:09.211Z,6.60
2023-05-09T19:41:35.977Z,7.00
2023-05-09T19:44:02.727Z,5.90
2023-05-09T19:46:29.572Z,6.30
2023-05-09T19:48:56.324Z,4.60
2023-05-09T19:51:22.975Z,5.90
2023-05-09T19:53:49.720Z,4.60
2023-05-09T19:56:16.643Z,6.00
2023-05-09T19:58:43.503Z,5.70
2023-05-09T20:01:10.355Z,6.60
2023-05-09T20:03:38.821Z,5.50
2023-05-09T20:06:05.844Z,7.00
2023-05-09T20:08:32.532Z,5.00
2023-05-09T20:11:00.138Z,7.80
2023-05-09T20:13:27.514Z,6.80
2023-05-09T20:15:54.392Z,6.90
2023-05-09T20:18:21.138Z,5.70
2023-05-09T20:20:48.087Z,5.90
2023-05-09T20:23:14.668Z,6.40
2023-05-09T20:25:41.253Z,7.00
2023-05-09T20:28:11.591Z,5.30
2023-05-09T20:30:38.791Z,5.20
2023-05-09T20:33:05.370Z,5.80
2023-05-09T20:35:32.227Z,8.60
2023-05-09T20:37:58.840Z,5.90
2023-05-09T20:40:25.749Z,5.40
2023-05-09T20:42:52.763Z,5.30
2023-05-09T20:45:19.565Z,6.00
2023-05-09T20:47:46.269Z,6.50
2023-05-09T20:50:12.957Z,5.90
2023-05-09T20:52:39.586Z,6.10
2023-05-09T20:55:06.418Z,6.40
2023-05-09T20:57:33.085Z,6.00
2023-05-09T20:59:59.622Z,5.90
2023-05-09T21:02:26.204Z,5.60
2023-05-09T21:04:52.804Z,6.20
2023-05-09T21:07:19.469Z,5.60
2023-05-09T21:09:47.230Z,5.40
2023-05-09T21:12:13.862Z,6.00
2023-05-09T21:14:40.920Z,5.70
2023-05-09T21:17:07.564Z,5.80
2023-05-09T21:19:34.240Z,5.80
2023-05-09T21:22:01.320Z,5.80
2023-05-09T21:24:27.881Z,5.10
2023-05-09T21:26:54.498Z,5.30
2023-05-09T21:29:21.130Z,5.60
2023-05-09T21:31:47.718Z,4.90
2023-05-09T21:34:14.274Z,5.50
2023-05-09T21:36:41.048Z,5.30
2023-05-09T21:39:11.688Z,5.50
2023-05-09T21:41:40.130Z,5.00
2023-05-09T21:44:11.982Z,4.70
2023-05-09T21:46:38.882Z,6.10
2023-05-09T21:49:05.709Z,6.50
2023-05-09T21:51:33.525Z,6.20
2023-05-09T21:54:01.111Z,5.80
2023-05-09T21:56:27.641Z,5.10
2023-05-09T21:58:54.157Z,5.20
2023-05-09T22:01:21.236Z,4.80
2023-05-09T22:03:47.908Z,5.90
2023-05-09T22:06:14.666Z,7.90
2023-05-09T22:08:41.196Z,6.00
2023-05-09T22:11:07.830Z,7.10
2023-05-09T22:13:36.367Z,5.20
2023-05-09T22:16:04.069Z,6.20
2023-05-09T22:18:31.398Z,5.00
2023-05-09T22:20:58.008Z,5.10
2023-05-09T22:23:24.731Z,6.70
2023-05-09T22:25:51.346Z,5.30
2023-05-09T22:28:17.985Z,5.30
2023-05-09T22:30:44.586Z,6.20
2023-05-09T22:33:11.271Z,4.60
2023-05-09T22:35:37.992Z,5.90
2023-05-09T22:38:04.512Z,5.70
2023-05-09T22:40:31.125Z,5.20
2023-05-09T22:42:57.696Z,3.80
2023-05-09T22:45:24.255Z,4.20
2023-05-09T22:47:50.952Z,3.80
2023-05-09T22:50:17.908Z,4.90
2023-05-09T22:52:45.021Z,3.50
2023-05-09T22:55:11.800Z,3.80
2023-05-09T22:57:38.495Z,3.30
2023-05-09T23:00:06.195Z,3.70
2023-05-09T23:02:32.967Z,4.00
2023-05-09T23:04:59.987Z,3.90
2023-05-09T23:07:26.547Z,3.40
2023-05-09T23:09:53.201Z,4.20
2023-05-09T23:12:19.855Z,3.80
2023-05-09T23:14:46.839Z,4.10
2023-05-09T23:17:13.488Z,5.00
2023-05-09T23:19:40.072Z,3.50
2023-05-09T23:22:06.728Z,3.40
2023-05-09T23:24:33.360Z,4.10
2023-05-09T23:26:59.972Z,3.50
2023-05-09T23:29:26.796Z,3.30
2023-05-09T23:31:53.592Z,3.90
2023-05-09T23:34:20.547Z,3.10
2023-05-09T23:36:47.127Z,4.00
2023-05-09T23:39:15.579Z,3.70
2023-05-09T23:41:42.155Z,3.60
2023-05-09T23:44:09.108Z,4.00
2023-05-09T23:46:35.915Z,3.00
2023-05-09T23:49:02.606Z,4.30
2023-05-09T23:51:29.212Z,5.90
2023-05-09T23:53:55.797Z,3.50
2023-05-09T23:56:22.527Z,4.30
2023-05-09T23:58:49.193Z,5.00
